Terminal Aerodrome Forecast
Issued by NWS Flagstaff, AZ

Home | Current Version | Previous Version | Text Only | Print | Product List | Glossary On
Versions: 1 2 3 4 5 6 7 8 9 10 11 12 13 14
000
FTUS45 KFGZ 302329
TAFFLG
TAF
KFLG 302329Z 3100/3124 VRB05KT P6SM VCSH BKN080
      TEMPO 3100/3102 VRB15G25KT 4SM TSRA BKN060CB
     FM310400 VRB04KT P6SM SCT080 SCT200
     FM311800 21008KT P6SM SCT060
      TEMPO 3118/3122 TSRA BKN050CB=

USA.gov is the U.S. government's official web portal to all federal, state and local government web resources and services.